Terminal Aerodrome Forecast
Issued by NWS Memphis, TN

Home | Current Version | Previous Version | Text Only | Print | Product List | Glossary On
Versions: 1 2 3 4 5 6 7 8 9 10 11 12 13 14 15 16 17 18
000
FTUS44 KMEG 311100
TAFMKL
TAF
KMKL 311131Z 3112/0112 33003KT 3SM BR SCT050
      TEMPO 3112/3113 1/2SM FG VV002
     FM311300 33008KT P6SM BKN050
     FM311500 35015G28KT P6SM VCSH OVC035
     FM312000 35015G28KT P6SM BKN050
     FM312300 34012KT P6SM SCT050
     FM010400 34008KT P6SM SKC=

USA.gov is the U.S. government's official web portal to all federal, state and local government web resources and services.